sensor_id;sensor_type;location;lat;lon;timestamp;temperature;humidity
4727;DHT22;2377;51.734;8.950;2023-06-22T00:02:21;19.50;29.00
4727;DHT22;2377;51.734;8.950;2023-06-22T00:04:49;19.60;30.00
4727;DHT22;2377;51.734;8.950;2023-06-22T00:07:16;19.60;25.10
4727;DHT22;2377;51.734;8.950;2023-06-22T00:09:43;19.60;22.60
4727;DHT22;2377;51.734;8.950;2023-06-22T00:12:10;19.60;22.10
4727;DHT22;2377;51.734;8.950;2023-06-22T00:14:37;19.60;22.00
4727;DHT22;2377;51.734;8.950;2023-06-22T00:17:04;19.60;26.40
4727;DHT22;2377;51.734;8.950;2023-06-22T00:19:31;19.60;37.30
4727;DHT22;2377;51.734;8.950;2023-06-22T00:21:59;19.50;40.40
4727;DHT22;2377;51.734;8.950;2023-06-22T00:24:28;19.50;47.60
4727;DHT22;2377;51.734;8.950;2023-06-22T00:26:55;19.50;50.70
4727;DHT22;2377;51.734;8.950;2023-06-22T00:29:22;19.50;44.80
4727;DHT22;2377;51.734;8.950;2023-06-22T00:31:49;19.50;40.70
4727;DHT22;2377;51.734;8.950;2023-06-22T00:34:16;19.60;38.80
4727;DHT22;2377;51.734;8.950;2023-06-22T00:36:43;19.60;45.30
4727;DHT22;2377;51.734;8.950;2023-06-22T00:39:12;19.60;37.50
4727;DHT22;2377;51.734;8.950;2023-06-22T00:41:39;19.60;47.60
4727;DHT22;2377;51.734;8.950;2023-06-22T00:44:06;19.60;44.70
4727;DHT22;2377;51.734;8.950;2023-06-22T00:46:34;19.60;52.20
4727;DHT22;2377;51.734;8.950;2023-06-22T00:49:01;19.60;67.70
4727;DHT22;2377;51.734;8.950;2023-06-22T00:51:31;19.50;72.40
4727;DHT22;2377;51.734;8.950;2023-06-22T00:53:58;19.50;70.50
4727;DHT22;2377;51.734;8.950;2023-06-22T00:56:27;19.50;64.70
4727;DHT22;2377;51.734;8.950;2023-06-22T00:58:55;19.50;59.50
4727;DHT22;2377;51.734;8.950;2023-06-22T01:01:24;19.50;62.50
4727;DHT22;2377;51.734;8.950;2023-06-22T01:03:52;19.60;59.90
4727;DHT22;2377;51.734;8.950;2023-06-22T01:06:28;19.60;54.50
4727;DHT22;2377;51.734;8.950;2023-06-22T01:09:08;19.60;62.80
4727;DHT22;2377;51.734;8.950;2023-06-22T01:11:45;19.60;65.20
4727;DHT22;2377;51.734;8.950;2023-06-22T01:14:22;19.60;70.80
4727;DHT22;2377;51.734;8.950;2023-06-22T01:16:54;19.60;81.20
4727;DHT22;2377;51.734;8.950;2023-06-22T01:19:36;19.50;77.70
4727;DHT22;2377;51.734;8.950;2023-06-22T01:22:08;19.50;84.60
4727;DHT22;2377;51.734;8.950;2023-06-22T01:24:48;19.60;78.10
4727;DHT22;2377;51.734;8.950;2023-06-22T01:27:35;19.60;80.40
4727;DHT22;2377;51.734;8.950;2023-06-22T01:30:10;19.60;91.10
4727;DHT22;2377;51.734;8.950;2023-06-22T01:32:41;19.60;81.10
4727;DHT22;2377;51.734;8.950;2023-06-22T01:35:09;19.60;75.40
4727;DHT22;2377;51.734;8.950;2023-06-22T01:37:38;19.60;78.80
4727;DHT22;2377;51.734;8.950;2023-06-22T01:40:06;19.60;70.40
4727;DHT22;2377;51.734;8.950;2023-06-22T01:42:35;19.60;71.30
4727;DHT22;2377;51.734;8.950;2023-06-22T01:45:05;19.70;67.60
4727;DHT22;2377;51.734;8.950;2023-06-22T01:47:35;19.70;63.00
4727;DHT22;2377;51.734;8.950;2023-06-22T01:50:02;19.70;61.50
4727;DHT22;2377;51.734;8.950;2023-06-22T01:52:30;19.80;63.40
4727;DHT22;2377;51.734;8.950;2023-06-22T01:54:59;19.80;66.10
4727;DHT22;2377;51.734;8.950;2023-06-22T01:57:26;19.80;62.20
4727;DHT22;2377;51.734;8.950;2023-06-22T02:00:00;19.80;75.10
4727;DHT22;2377;51.734;8.950;2023-06-22T02:02:33;19.80;70.10
4727;DHT22;2377;51.734;8.950;2023-06-22T02:05:10;19.80;66.80
4727;DHT22;2377;51.734;8.950;2023-06-22T02:07:46;19.80;68.10
4727;DHT22;2377;51.734;8.950;2023-06-22T02:10:20;19.80;63.40
4727;DHT22;2377;51.734;8.950;2023-06-22T02:12:50;19.80;61.00
4727;DHT22;2377;51.734;8.950;2023-06-22T02:15:19;19.70;57.80
4727;DHT22;2377;51.734;8.950;2023-06-22T02:17:48;19.80;55.90
4727;DHT22;2377;51.734;8.950;2023-06-22T02:20:16;19.80;63.90
4727;DHT22;2377;51.734;8.950;2023-06-22T02:22:43;19.80;60.30
4727;DHT22;2377;51.734;8.950;2023-06-22T02:25:10;19.80;62.40
4727;DHT22;2377;51.734;8.950;2023-06-22T02:27:37;19.80;57.90
4727;DHT22;2377;51.734;8.950;2023-06-22T02:30:07;19.80;55.90
4727;DHT22;2377;51.734;8.950;2023-06-22T02:32:34;19.80;61.20
4727;DHT22;2377;51.734;8.950;2023-06-22T02:35:03;19.80;55.70
4727;DHT22;2377;51.734;8.950;2023-06-22T02:37:32;19.80;65.50
4727;DHT22;2377;51.734;8.950;2023-06-22T02:39:59;19.80;73.80
4727;DHT22;2377;51.734;8.950;2023-06-22T02:42:26;19.80;70.30
4727;DHT22;2377;51.734;8.950;2023-06-22T02:44:53;19.80;70.50
4727;DHT22;2377;51.734;8.950;2023-06-22T02:47:21;19.80;71.90
4727;DHT22;2377;51.734;8.950;2023-06-22T02:49:50;19.80;67.90
4727;DHT22;2377;51.734;8.950;2023-06-22T02:52:18;19.80;65.20
4727;DHT22;2377;51.734;8.950;2023-06-22T02:54:45;19.80;73.60
4727;DHT22;2377;51.734;8.950;2023-06-22T02:57:12;19.90;77.60
4727;DHT22;2377;51.734;8.950;2023-06-22T02:59:40;19.90;75.80
4727;DHT22;2377;51.734;8.950;2023-06-22T03:02:09;19.80;70.50
4727;DHT22;2377;51.734;8.950;2023-06-22T03:04:36;19.90;68.40
4727;DHT22;2377;51.734;8.950;2023-06-22T03:07:04;19.90;71.40
4727;DHT22;2377;51.734;8.950;2023-06-22T03:09:32;19.90;73.00
4727;DHT22;2377;51.734;8.950;2023-06-22T03:11:59;19.80;81.20
4727;DHT22;2377;51.734;8.950;2023-06-22T03:14:27;19.80;87.00
4727;DHT22;2377;51.734;8.950;2023-06-22T03:16:54;19.80;84.00
4727;DHT22;2377;51.734;8.950;2023-06-22T03:19:27;19.80;83.60
4727;DHT22;2377;51.734;8.950;2023-06-22T03:21:55;19.80;84.90
4727;DHT22;2377;51.734;8.950;2023-06-22T03:24:22;19.80;90.10
4727;DHT22;2377;51.734;8.950;2023-06-22T03:26:50;19.90;99.90
4727;DHT22;2377;51.734;8.950;2023-06-22T03:29:17;19.80;99.90
4727;DHT22;2377;51.734;8.950;2023-06-22T03:31:44;19.80;99.90
4727;DHT22;2377;51.734;8.950;2023-06-22T03:34:11;19.70;99.90
4727;DHT22;2377;51.734;8.950;2023-06-22T03:36:38;19.70;99.90
4727;DHT22;2377;51.734;8.950;2023-06-22T03:39:05;19.70;99.90
4727;DHT22;2377;51.734;8.950;2023-06-22T03:41:32;19.80;99.90
4727;DHT22;2377;51.734;8.950;2023-06-22T03:44:00;19.80;99.90
4727;DHT22;2377;51.734;8.950;2023-06-22T03:46:27;19.80;99.90
4727;DHT22;2377;51.734;8.950;2023-06-22T03:48:54;19.80;99.90
4727;DHT22;2377;51.734;8.950;2023-06-22T03:51:22;19.80;92.40
4727;DHT22;2377;51.734;8.950;2023-06-22T03:53:49;19.90;99.40
4727;DHT22;2377;51.734;8.950;2023-06-22T03:56:16;20.00;99.90
4727;DHT22;2377;51.734;8.950;2023-06-22T03:58:46;20.00;99.90
4727;DHT22;2377;51.734;8.950;2023-06-22T04:01:15;20.00;99.90
4727;DHT22;2377;51.734;8.950;2023-06-22T04:03:42;19.90;99.90
4727;DHT22;2377;51.734;8.950;2023-06-22T04:06:10;20.00;95.80
4727;DHT22;2377;51.734;8.950;2023-06-22T04:08:36;20.00;91.60
4727;DHT22;2377;51.734;8.950;2023-06-22T04:11:03;20.10;83.50
4727;DHT22;2377;51.734;8.950;2023-06-22T04:13:30;20.10;82.50
4727;DHT22;2377;51.734;8.950;2023-06-22T04:15:57;20.10;83.20
4727;DHT22;2377;51.734;8.950;2023-06-22T04:18:28;20.10;76.20
4727;DHT22;2377;51.734;8.950;2023-06-22T04:20:54;20.10;77.40
4727;DHT22;2377;51.734;8.950;2023-06-22T04:23:21;20.20;71.90
4727;DHT22;2377;51.734;8.950;2023-06-22T04:25:48;20.30;71.20
4727;DHT22;2377;51.734;8.950;2023-06-22T04:28:16;20.30;64.70
4727;DHT22;2377;51.734;8.950;2023-06-22T04:30:43;20.30;64.00
4727;DHT22;2377;51.734;8.950;2023-06-22T04:33:13;20.30;61.80
4727;DHT22;2377;51.734;8.950;2023-06-22T04:35:41;20.30;60.00
4727;DHT22;2377;51.734;8.950;2023-06-22T04:38:12;20.30;54.60
4727;DHT22;2377;51.734;8.950;2023-06-22T04:40:40;20.30;51.20
4727;DHT22;2377;51.734;8.950;2023-06-22T04:43:07;20.40;46.20
4727;DHT22;2377;51.734;8.950;2023-06-22T04:45:35;20.40;45.20
4727;DHT22;2377;51.734;8.950;2023-06-22T04:48:04;20.40;43.40
4727;DHT22;2377;51.734;8.950;2023-06-22T04:50:31;20.40;39.00
4727;DHT22;2377;51.734;8.950;2023-06-22T04:52:59;20.40;35.40
4727;DHT22;2377;51.734;8.950;2023-06-22T04:55:31;20.50;30.40
4727;DHT22;2377;51.734;8.950;2023-06-22T04:57:58;20.50;29.60
4727;DHT22;2377;51.734;8.950;2023-06-22T05:00:30;20.50;29.40
4727;DHT22;2377;51.734;8.950;2023-06-22T05:02:57;20.50;28.30
4727;DHT22;2377;51.734;8.950;2023-06-22T05:05:24;20.50;17.80
4727;DHT22;2377;51.734;8.950;2023-06-22T05:07:51;20.50;23.80
4727;DHT22;2377;51.734;8.950;2023-06-22T05:10:21;20.50;22.50
4727;DHT22;2377;51.734;8.950;2023-06-22T05:12:48;20.50;20.30
4727;DHT22;2377;51.734;8.950;2023-06-22T05:15:16;20.50;21.60
4727;DHT22;2377;51.734;8.950;2023-06-22T05:17:45;20.50;35.00
4727;DHT22;2377;51.734;8.950;2023-06-22T05:20:12;20.60;17.50
4727;DHT22;2377;51.734;8.950;2023-06-22T05:22:43;20.60;16.50
4727;DHT22;2377;51.734;8.950;2023-06-22T05:25:11;20.60;17.30
4727;DHT22;2377;51.734;8.950;2023-06-22T05:27:39;20.60;13.60
4727;DHT22;2377;51.734;8.950;2023-06-22T05:30:08;20.60;13.20
4727;DHT22;2377;51.734;8.950;2023-06-22T05:32:37;20.70;9.80
4727;DHT22;2377;51.734;8.950;2023-06-22T05:35:04;20.70;8.00
4727;DHT22;2377;51.734;8.950;2023-06-22T05:37:32;20.70;6.80
4727;DHT22;2377;51.734;8.950;2023-06-22T05:39:59;20.70;1.00
4727;DHT22;2377;51.734;8.950;2023-06-22T05:42:25;20.60;1.00
4727;DHT22;2377;51.734;8.950;2023-06-22T05:44:54;20.70;1.00
4727;DHT22;2377;51.734;8.950;2023-06-22T05:47:21;20.70;1.00
4727;DHT22;2377;51.734;8.950;2023-06-22T05:49:48;20.70;1.00
4727;DHT22;2377;51.734;8.950;2023-06-22T05:52:15;20.70;1.00
4727;DHT22;2377;51.734;8.950;2023-06-22T05:54:42;20.70;1.00
4727;DHT22;2377;51.734;8.950;2023-06-22T05:57:09;20.60;1.00
4727;DHT22;2377;51.734;8.950;2023-06-22T05:59:36;20.60;1.00
4727;DHT22;2377;51.734;8.950;2023-06-22T06:02:05;20.60;1.00
4727;DHT22;2377;51.734;8.950;2023-06-22T06:04:35;20.60;1.00
4727;DHT22;2377;51.734;8.950;2023-06-22T06:07:02;20.60;1.00
4727;DHT22;2377;51.734;8.950;2023-06-22T06:09:29;20.60;1.00
4727;DHT22;2377;51.734;8.950;2023-06-22T06:11:56;20.60;1.00
4727;DHT22;2377;51.734;8.950;2023-06-22T06:14:23;20.60;1.00
4727;DHT22;2377;51.734;8.950;2023-06-22T06:16:50;20.60;1.00
4727;DHT22;2377;51.734;8.950;2023-06-22T06:19:22;20.70;1.00
4727;DHT22;2377;51.734;8.950;2023-06-22T06:21:49;20.80;1.00
4727;DHT22;2377;51.734;8.950;2023-06-22T06:24:16;20.80;1.00
4727;DHT22;2377;51.734;8.950;2023-06-22T06:26:43;20.80;1.00
4727;DHT22;2377;51.734;8.950;2023-06-22T06:29:10;21.00;1.00
4727;DHT22;2377;51.734;8.950;2023-06-22T06:31:37;21.00;1.00
4727;DHT22;2377;51.734;8.950;2023-06-22T06:34:04;21.00;1.00
4727;DHT22;2377;51.734;8.950;2023-06-22T06:36:32;21.00;1.00
4727;DHT22;2377;51.734;8.950;2023-06-22T06:38:59;21.00;1.00
4727;DHT22;2377;51.734;8.950;2023-06-22T06:41:26;21.00;1.00
4727;DHT22;2377;51.734;8.950;2023-06-22T06:43:53;21.00;1.00
4727;DHT22;2377;51.734;8.950;2023-06-22T06:46:20;21.00;1.00
4727;DHT22;2377;51.734;8.950;2023-06-22T06:48:47;21.00;1.00
4727;DHT22;2377;51.734;8.950;2023-06-22T06:51:14;21.00;1.00
4727;DHT22;2377;51.734;8.950;2023-06-22T06:53:42;21.00;1.00
4727;DHT22;2377;51.734;8.950;2023-06-22T06:56:09;21.10;5.50
4727;DHT22;2377;51.734;8.950;2023-06-22T06:58:36;21.10;1.00
4727;DHT22;2377;51.734;8.950;2023-06-22T07:01:03;21.10;1.00
4727;DHT22;2377;51.734;8.950;2023-06-22T07:03:30;21.10;1.00
4727;DHT22;2377;51.734;8.950;2023-06-22T07:06:00;21.10;1.00
4727;DHT22;2377;51.734;8.950;2023-06-22T07:08:27;21.20;1.00
4727;DHT22;2377;51.734;8.950;2023-06-22T07:10:55;21.20;1.00
4727;DHT22;2377;51.734;8.950;2023-06-22T07:13:22;21.30;1.00
4727;DHT22;2377;51.734;8.950;2023-06-22T07:15:49;21.30;1.00
4727;DHT22;2377;51.734;8.950;2023-06-22T07:18:16;21.40;1.00
4727;DHT22;2377;51.734;8.950;2023-06-22T07:20:43;21.50;3.50
4727;DHT22;2377;51.734;8.950;2023-06-22T07:23:10;21.50;3.80
4727;DHT22;2377;51.734;8.950;2023-06-22T07:25:37;21.50;3.10
4727;DHT22;2377;51.734;8.950;2023-06-22T07:28:07;21.60;1.00
4727;DHT22;2377;51.734;8.950;2023-06-22T07:30:34;21.70;4.20
4727;DHT22;2377;51.734;8.950;2023-06-22T07:33:02;21.80;1.60
4727;DHT22;2377;51.734;8.950;2023-06-22T07:35:32;21.80;1.00
4727;DHT22;2377;51.734;8.950;2023-06-22T07:37:59;21.80;1.00
4727;DHT22;2377;51.734;8.950;2023-06-22T07:40:26;21.80;1.00
4727;DHT22;2377;51.734;8.950;2023-06-22T07:42:53;21.80;1.00
4727;DHT22;2377;51.734;8.950;2023-06-22T07:45:22;21.90;1.00
4727;DHT22;2377;51.734;8.950;2023-06-22T07:47:49;21.90;1.00
4727;DHT22;2377;51.734;8.950;2023-06-22T07:50:16;22.00;1.00
4727;DHT22;2377;51.734;8.950;2023-06-22T07:52:43;22.00;1.00
4727;DHT22;2377;51.734;8.950;2023-06-22T07:55:11;22.00;1.00
4727;DHT22;2377;51.734;8.950;2023-06-22T07:57:38;22.10;1.00
4727;DHT22;2377;51.734;8.950;2023-06-22T08:00:08;22.10;1.00
4727;DHT22;2377;51.734;8.950;2023-06-22T08:02:39;22.10;1.00
4727;DHT22;2377;51.734;8.950;2023-06-22T08:05:07;22.10;1.00
4727;DHT22;2377;51.734;8.950;2023-06-22T08:07:35;22.10;1.00
4727;DHT22;2377;51.734;8.950;2023-06-22T08:10:03;22.10;1.00
4727;DHT22;2377;51.734;8.950;2023-06-22T08:12:31;22.20;1.00
4727;DHT22;2377;51.734;8.950;2023-06-22T08:14:58;22.20;1.00
4727;DHT22;2377;51.734;8.950;2023-06-22T08:17:25;22.30;1.00
4727;DHT22;2377;51.734;8.950;2023-06-22T08:19:54;22.50;1.00
4727;DHT22;2377;51.734;8.950;2023-06-22T08:22:21;22.60;1.00
4727;DHT22;2377;51.734;8.950;2023-06-22T08:24:48;22.90;1.00
4727;DHT22;2377;51.734;8.950;2023-06-22T08:27:15;23.10;1.00
4727;DHT22;2377;51.734;8.950;2023-06-22T08:29:44;23.40;1.00
4727;DHT22;2377;51.734;8.950;2023-06-22T08:32:12;23.60;1.00
4727;DHT22;2377;51.734;8.950;2023-06-22T08:34:39;23.80;1.00
4727;DHT22;2377;51.734;8.950;2023-06-22T08:37:09;23.90;1.00
4727;DHT22;2377;51.734;8.950;2023-06-22T08:39:36;24.10;1.00
4727;DHT22;2377;51.734;8.950;2023-06-22T08:42:04;24.60;1.00
4727;DHT22;2377;51.734;8.950;2023-06-22T08:44:32;24.90;1.00
4727;DHT22;2377;51.734;8.950;2023-06-22T08:46:59;25.10;1.00
4727;DHT22;2377;51.734;8.950;2023-06-22T08:49:26;25.20;1.00
4727;DHT22;2377;51.734;8.950;2023-06-22T08:51:53;25.30;1.00
4727;DHT22;2377;51.734;8.950;2023-06-22T08:54:23;25.60;1.00
4727;DHT22;2377;51.734;8.950;2023-06-22T08:56:50;25.90;1.00
4727;DHT22;2377;51.734;8.950;2023-06-22T08:59:17;26.20;1.00
4727;DHT22;2377;51.734;8.950;2023-06-22T09:01:44;26.30;1.00
4727;DHT22;2377;51.734;8.950;2023-06-22T09:04:14;26.50;1.00
4727;DHT22;2377;51.734;8.950;2023-06-22T09:06:41;26.60;1.00
4727;DHT22;2377;51.734;8.950;2023-06-22T09:09:11;26.80;99.90
4727;DHT22;2377;51.734;8.950;2023-06-22T09:11:40;27.00;99.90
4727;DHT22;2377;51.734;8.950;2023-06-22T09:14:07;27.10;99.90
4727;DHT22;2377;51.734;8.950;2023-06-22T09:16:34;27.30;99.90
4727;DHT22;2377;51.734;8.950;2023-06-22T09:19:01;27.30;99.90
4727;DHT22;2377;51.734;8.950;2023-06-22T09:21:29;27.40;99.90
4727;DHT22;2377;51.734;8.950;2023-06-22T09:23:56;27.40;99.90
4727;DHT22;2377;51.734;8.950;2023-06-22T09:26:23;27.50;99.90
4727;DHT22;2377;51.734;8.950;2023-06-22T09:28:52;27.60;99.90
4727;DHT22;2377;51.734;8.950;2023-06-22T09:31:19;27.60;99.90
4727;DHT22;2377;51.734;8.950;2023-06-22T09:33:51;27.70;99.90
4727;DHT22;2377;51.734;8.950;2023-06-22T09:36:19;27.80;99.90
4727;DHT22;2377;51.734;8.950;2023-06-22T09:38:46;27.80;99.90
4727;DHT22;2377;51.734;8.950;2023-06-22T09:41:14;27.90;99.90
4727;DHT22;2377;51.734;8.950;2023-06-22T09:43:41;28.00;99.90
4727;DHT22;2377;51.734;8.950;2023-06-22T09:46:10;28.00;99.90
4727;DHT22;2377;51.734;8.950;2023-06-22T09:48:37;27.80;99.90
4727;DHT22;2377;51.734;8.950;2023-06-22T09:51:04;27.80;99.90
4727;DHT22;2377;51.734;8.950;2023-06-22T09:53:31;27.80;99.90
4727;DHT22;2377;51.734;8.950;2023-06-22T09:56:00;28.00;99.90
4727;DHT22;2377;51.734;8.950;2023-06-22T09:58:27;27.80;99.90
4727;DHT22;2377;51.734;8.950;2023-06-22T10:00:55;28.00;99.90
4727;DHT22;2377;51.734;8.950;2023-06-22T10:03:23;28.10;99.90
4727;DHT22;2377;51.734;8.950;2023-06-22T10:05:51;28.30;99.90
4727;DHT22;2377;51.734;8.950;2023-06-22T10:08:18;28.30;99.90
4727;DHT22;2377;51.734;8.950;2023-06-22T10:10:45;28.50;99.90
4727;DHT22;2377;51.734;8.950;2023-06-22T10:13:12;28.50;99.90
4727;DHT22;2377;51.734;8.950;2023-06-22T10:15:40;28.40;99.90
4727;DHT22;2377;51.734;8.950;2023-06-22T10:18:08;28.50;99.90
4727;DHT22;2377;51.734;8.950;2023-06-22T10:20:37;28.50;99.90
4727;DHT22;2377;51.734;8.950;2023-06-22T10:23:04;28.50;99.90
4727;DHT22;2377;51.734;8.950;2023-06-22T10:25:31;28.60;99.90
4727;DHT22;2377;51.734;8.950;2023-06-22T10:27:58;28.70;99.90
4727;DHT22;2377;51.734;8.950;2023-06-22T10:30:25;28.80;99.90
4727;DHT22;2377;51.734;8.950;2023-06-22T10:32:52;29.00;99.90
4727;DHT22;2377;51.734;8.950;2023-06-22T10:35:19;29.10;99.90
4727;DHT22;2377;51.734;8.950;2023-06-22T10:37:48;29.20;99.90
4727;DHT22;2377;51.734;8.950;2023-06-22T10:40:17;29.20;99.90
4727;DHT22;2377;51.734;8.950;2023-06-22T10:42:44;29.10;99.90
4727;DHT22;2377;51.734;8.950;2023-06-22T10:45:11;29.00;99.90
4727;DHT22;2377;51.734;8.950;2023-06-22T10:47:39;29.10;99.90
4727;DHT22;2377;51.734;8.950;2023-06-22T10:50:08;29.30;99.90
4727;DHT22;2377;51.734;8.950;2023-06-22T10:52:35;29.10;99.90
4727;DHT22;2377;51.734;8.950;2023-06-22T10:55:04;29.00;99.90
4727;DHT22;2377;51.734;8.950;2023-06-22T10:57:32;29.10;99.90
4727;DHT22;2377;51.734;8.950;2023-06-22T10:59:59;29.10;99.90
4727;DHT22;2377;51.734;8.950;2023-06-22T11:02:26;29.10;99.90
4727;DHT22;2377;51.734;8.950;2023-06-22T11:04:54;29.00;99.90
4727;DHT22;2377;51.734;8.950;2023-06-22T11:07:21;28.90;99.90
4727;DHT22;2377;51.734;8.950;2023-06-22T11:09:47;28.90;99.90
4727;DHT22;2377;51.734;8.950;2023-06-22T11:12:16;29.00;99.90
4727;DHT22;2377;51.734;8.950;2023-06-22T11:14:43;29.00;99.90
4727;DHT22;2377;51.734;8.950;2023-06-22T11:17:10;28.90;99.90
4727;DHT22;2377;51.734;8.950;2023-06-22T11:19:37;28.80;99.90
4727;DHT22;2377;51.734;8.950;2023-06-22T11:22:04;28.70;99.90
4727;DHT22;2377;51.734;8.950;2023-06-22T11:24:32;28.80;99.90
4727;DHT22;2377;51.734;8.950;2023-06-22T11:26:59;29.00;99.90
4727;DHT22;2377;51.734;8.950;2023-06-22T11:29:27;29.10;99.90
4727;DHT22;2377;51.734;8.950;2023-06-22T11:31:54;29.10;99.90
4727;DHT22;2377;51.734;8.950;2023-06-22T11:34:21;29.30;99.90
4727;DHT22;2377;51.734;8.950;2023-06-22T11:36:48;29.40;99.90
4727;DHT22;2377;51.734;8.950;2023-06-22T11:39:15;29.60;99.90
4727;DHT22;2377;51.734;8.950;2023-06-22T11:41:42;29.60;99.90
4727;DHT22;2377;51.734;8.950;2023-06-22T11:44:09;29.70;99.90
4727;DHT22;2377;51.734;8.950;2023-06-22T11:46:37;29.80;99.90
4727;DHT22;2377;51.734;8.950;2023-06-22T11:49:05;29.60;99.90
4727;DHT22;2377;51.734;8.950;2023-06-22T11:51:32;29.50;99.90
4727;DHT22;2377;51.734;8.950;2023-06-22T11:53:59;29.40;99.90
4727;DHT22;2377;51.734;8.950;2023-06-22T11:56:25;29.30;99.90
4727;DHT22;2377;51.734;8.950;2023-06-22T11:58:53;29.30;99.90
4727;DHT22;2377;51.734;8.950;2023-06-22T12:01:20;29.30;99.90
4727;DHT22;2377;51.734;8.950;2023-06-22T12:03:48;29.30;99.90
4727;DHT22;2377;51.734;8.950;2023-06-22T12:06:17;29.30;99.90
4727;DHT22;2377;51.734;8.950;2023-06-22T12:08:44;29.20;99.90
4727;DHT22;2377;51.734;8.950;2023-06-22T12:11:11;29.10;99.90
4727;DHT22;2377;51.734;8.950;2023-06-22T12:13:37;29.10;99.90
4727;DHT22;2377;51.734;8.950;2023-06-22T12:16:05;28.90;99.90
4727;DHT22;2377;51.734;8.950;2023-06-22T12:18:32;28.70;99.90
4727;DHT22;2377;51.734;8.950;2023-06-22T12:21:01;28.60;99.90
4727;DHT22;2377;51.734;8.950;2023-06-22T12:23:28;28.50;1.00
4727;DHT22;2377;51.734;8.950;2023-06-22T12:25:54;28.40;1.00
4727;DHT22;2377;51.734;8.950;2023-06-22T12:28:21;28.40;1.00
4727;DHT22;2377;51.734;8.950;2023-06-22T12:30:49;28.30;1.00
4727;DHT22;2377;51.734;8.950;2023-06-22T12:33:16;28.20;1.00
4727;DHT22;2377;51.734;8.950;2023-06-22T12:35:43;28.10;1.00
4727;DHT22;2377;51.734;8.950;2023-06-22T12:38:12;28.00;1.00
4727;DHT22;2377;51.734;8.950;2023-06-22T12:40:39;27.90;1.00
4727;DHT22;2377;51.734;8.950;2023-06-22T12:43:05;27.80;1.00
4727;DHT22;2377;51.734;8.950;2023-06-22T12:45:33;27.70;1.00
4727;DHT22;2377;51.734;8.950;2023-06-22T12:48:00;27.60;1.00
4727;DHT22;2377;51.734;8.950;2023-06-22T12:50:27;27.60;1.00
4727;DHT22;2377;51.734;8.950;2023-06-22T12:52:54;27.50;1.00
4727;DHT22;2377;51.734;8.950;2023-06-22T12:55:22;27.30;1.00
4727;DHT22;2377;51.734;8.950;2023-06-22T12:57:49;27.30;1.00
4727;DHT22;2377;51.734;8.950;2023-06-22T13:00:17;27.20;1.00
4727;DHT22;2377;51.734;8.950;2023-06-22T13:02:45;27.10;1.00
4727;DHT22;2377;51.734;8.950;2023-06-22T13:05:12;26.90;1.00
4727;DHT22;2377;51.734;8.950;2023-06-22T13:07:39;26.70;1.00
4727;DHT22;2377;51.734;8.950;2023-06-22T13:10:08;26.60;1.00
4727;DHT22;2377;51.734;8.950;2023-06-22T13:12:36;26.60;1.00
4727;DHT22;2377;51.734;8.950;2023-06-22T13:15:04;26.60;1.00
4727;DHT22;2377;51.734;8.950;2023-06-22T13:17:33;26.60;1.00
4727;DHT22;2377;51.734;8.950;2023-06-22T13:20:00;26.50;1.00
4727;DHT22;2377;51.734;8.950;2023-06-22T13:22:29;26.40;1.00
4727;DHT22;2377;51.734;8.950;2023-06-22T13:24:58;26.40;1.00
4727;DHT22;2377;51.734;8.950;2023-06-22T13:27:26;26.30;1.00
4727;DHT22;2377;51.734;8.950;2023-06-22T13:29:55;26.20;1.00
4727;DHT22;2377;51.734;8.950;2023-06-22T13:32:22;26.20;1.00
4727;DHT22;2377;51.734;8.950;2023-06-22T13:34:49;26.10;1.00
4727;DHT22;2377;51.734;8.950;2023-06-22T13:37:16;26.10;1.00
4727;DHT22;2377;51.734;8.950;2023-06-22T13:39:44;26.00;1.00
4727;DHT22;2377;51.734;8.950;2023-06-22T13:42:11;26.00;1.00
4727;DHT22;2377;51.734;8.950;2023-06-22T13:44:38;25.80;1.00
4727;DHT22;2377;51.734;8.950;2023-06-22T13:47:06;25.70;1.00
4727;DHT22;2377;51.734;8.950;2023-06-22T13:49:36;25.60;1.00
4727;DHT22;2377;51.734;8.950;2023-06-22T13:52:04;25.50;1.00
4727;DHT22;2377;51.734;8.950;2023-06-22T13:54:35;25.20;1.00
4727;DHT22;2377;51.734;8.950;2023-06-22T13:57:02;25.10;1.00
4727;DHT22;2377;51.734;8.950;2023-06-22T13:59:30;24.90;1.00
4727;DHT22;2377;51.734;8.950;2023-06-22T14:01:57;24.60;1.00
4727;DHT22;2377;51.734;8.950;2023-06-22T14:04:25;24.30;1.00
4727;DHT22;2377;51.734;8.950;2023-06-22T14:06:54;24.10;1.00
4727;DHT22;2377;51.734;8.950;2023-06-22T14:09:22;24.00;5.60
4727;DHT22;2377;51.734;8.950;2023-06-22T14:11:49;23.90;12.70
4727;DHT22;2377;51.734;8.950;2023-06-22T14:14:16;23.80;12.80
4727;DHT22;2377;51.734;8.950;2023-06-22T14:16:43;23.70;7.90
4727;DHT22;2377;51.734;8.950;2023-06-22T14:19:10;23.60;3.10
4727;DHT22;2377;51.734;8.950;2023-06-22T14:21:38;23.60;6.80
4727;DHT22;2377;51.734;8.950;2023-06-22T14:24:05;23.50;9.60
4727;DHT22;2377;51.734;8.950;2023-06-22T14:26:32;23.40;13.00
4727;DHT22;2377;51.734;8.950;2023-06-22T14:28:59;23.30;24.90
4727;DHT22;2377;51.734;8.950;2023-06-22T14:31:26;23.20;26.10
4727;DHT22;2377;51.734;8.950;2023-06-22T14:33:53;23.10;41.70
4727;DHT22;2377;51.734;8.950;2023-06-22T14:36:20;23.00;46.10
4727;DHT22;2377;51.734;8.950;2023-06-22T14:38:48;23.00;38.30
4727;DHT22;2377;51.734;8.950;2023-06-22T14:41:15;22.90;50.10
4727;DHT22;2377;51.734;8.950;2023-06-22T14:43:46;22.70;68.40
4727;DHT22;2377;51.734;8.950;2023-06-22T14:46:14;22.60;99.60
4727;DHT22;2377;51.734;8.950;2023-06-22T14:48:41;22.40;99.90
4727;DHT22;2377;51.734;8.950;2023-06-22T14:51:08;22.30;99.90
4727;DHT22;2377;51.734;8.950;2023-06-22T14:53:36;22.30;99.90
4727;DHT22;2377;51.734;8.950;2023-06-22T14:56:05;22.30;99.90
4727;DHT22;2377;51.734;8.950;2023-06-22T14:58:33;22.30;99.90
4727;DHT22;2377;51.734;8.950;2023-06-22T15:01:01;22.30;99.90
4727;DHT22;2377;51.734;8.950;2023-06-22T15:03:30;22.30;99.90
4727;DHT22;2377;51.734;8.950;2023-06-22T15:05:58;22.20;99.90
4727;DHT22;2377;51.734;8.950;2023-06-22T15:08:25;22.10;99.90
4727;DHT22;2377;51.734;8.950;2023-06-22T15:10:52;22.20;99.90
4727;DHT22;2377;51.734;8.950;2023-06-22T15:13:21;22.10;99.90
4727;DHT22;2377;51.734;8.950;2023-06-22T15:15:48;22.10;99.90
4727;DHT22;2377;51.734;8.950;2023-06-22T15:18:16;22.10;99.90
4727;DHT22;2377;51.734;8.950;2023-06-22T15:20:43;22.10;99.90
4727;DHT22;2377;51.734;8.950;2023-06-22T15:23:14;22.10;99.90
4727;DHT22;2377;51.734;8.950;2023-06-22T15:25:41;22.20;99.90
4727;DHT22;2377;51.734;8.950;2023-06-22T15:28:09;22.20;99.90
4727;DHT22;2377;51.734;8.950;2023-06-22T15:30:38;22.20;99.90
4727;DHT22;2377;51.734;8.950;2023-06-22T15:33:05;22.30;99.90
4727;DHT22;2377;51.734;8.950;2023-06-22T15:35:32;22.30;99.90
4727;DHT22;2377;51.734;8.950;2023-06-22T15:37:59;22.30;99.90
4727;DHT22;2377;51.734;8.950;2023-06-22T15:40:27;22.40;99.90
4727;DHT22;2377;51.734;8.950;2023-06-22T15:42:54;22.50;99.90
4727;DHT22;2377;51.734;8.950;2023-06-22T15:45:21;22.50;99.90
4727;DHT22;2377;51.734;8.950;2023-06-22T15:47:52;22.50;99.90
4727;DHT22;2377;51.734;8.950;2023-06-22T15:50:20;22.50;99.90
4727;DHT22;2377;51.734;8.950;2023-06-22T15:52:47;22.60;99.90
4727;DHT22;2377;51.734;8.950;2023-06-22T15:55:16;22.60;99.90
4727;DHT22;2377;51.734;8.950;2023-06-22T15:57:44;22.60;99.90
4727;DHT22;2377;51.734;8.950;2023-06-22T16:00:13;22.70;99.90
4727;DHT22;2377;51.734;8.950;2023-06-22T16:02:41;22.60;99.90
4727;DHT22;2377;51.734;8.950;2023-06-22T16:05:10;22.70;99.90
4727;DHT22;2377;51.734;8.950;2023-06-22T16:07:38;22.60;99.90
4727;DHT22;2377;51.734;8.950;2023-06-22T16:10:06;22.60;95.70
4727;DHT22;2377;51.734;8.950;2023-06-22T16:12:34;22.60;87.20